sensor_id;sensor_type;location;lat;lon;timestamp;temperature;humidity
70244;DHT22;57634;51.136;17.024;2022-12-01T00:01:03;1.50;86.30
70244;DHT22;57634;51.136;17.024;2022-12-01T00:04:05;1.50;86.40
70244;DHT22;57634;51.136;17.024;2022-12-01T00:07:06;1.50;86.50
70244;DHT22;57634;51.136;17.024;2022-12-01T00:10:10;1.50;86.30
70244;DHT22;57634;51.136;17.024;2022-12-01T00:13:52;1.50;86.20
70244;DHT22;57634;51.136;17.024;2022-12-01T00:16:53;1.40;86.30
70244;DHT22;57634;51.136;17.024;2022-12-01T00:19:55;1.40;86.20
70244;DHT22;57634;51.136;17.024;2022-12-01T00:22:56;1.40;86.30
70244;DHT22;57634;51.136;17.024;2022-12-01T00:26:04;1.30;86.30
70244;DHT22;57634;51.136;17.024;2022-12-01T00:29:05;1.30;86.50
70244;DHT22;57634;51.136;17.024;2022-12-01T00:32:06;1.40;86.60
70244;DHT22;57634;51.136;17.024;2022-12-01T00:35:08;1.40;86.50
70244;DHT22;57634;51.136;17.024;2022-12-01T00:38:10;1.40;86.20
70244;DHT22;57634;51.136;17.024;2022-12-01T00:41:11;1.40;86.10
70244;DHT22;57634;51.136;17.024;2022-12-01T00:44:13;1.40;86.40
70244;DHT22;57634;51.136;17.024;2022-12-01T00:47:14;1.40;86.50
70244;DHT22;57634;51.136;17.024;2022-12-01T00:50:15;1.40;86.50
70244;DHT22;57634;51.136;17.024;2022-12-01T00:53:45;1.50;86.60
70244;DHT22;57634;51.136;17.024;2022-12-01T00:56:46;1.50;86.40
70244;DHT22;57634;51.136;17.024;2022-12-01T00:59:48;1.50;86.30
70244;DHT22;57634;51.136;17.024;2022-12-01T01:02:49;1.50;86.30
70244;DHT22;57634;51.136;17.024;2022-12-01T01:05:51;1.40;86.30
70244;DHT22;57634;51.136;17.024;2022-12-01T01:08:53;1.50;86.40
70244;DHT22;57634;51.136;17.024;2022-12-01T01:11:54;1.50;86.50
70244;DHT22;57634;51.136;17.024;2022-12-01T01:14:56;1.50;86.30
70244;DHT22;57634;51.136;17.024;2022-12-01T01:17:57;1.60;86.20
70244;DHT22;57634;51.136;17.024;2022-12-01T01:21:02;1.50;86.10
70244;DHT22;57634;51.136;17.024;2022-12-01T01:24:04;1.60;86.10
70244;DHT22;57634;51.136;17.024;2022-12-01T01:27:05;1.60;86.00
70244;DHT22;57634;51.136;17.024;2022-12-01T01:30:07;1.60;85.90
70244;DHT22;57634;51.136;17.024;2022-12-01T01:33:08;1.60;85.80
70244;DHT22;57634;51.136;17.024;2022-12-01T01:36:36;1.60;85.50
70244;DHT22;57634;51.136;17.024;2022-12-01T01:39:38;1.60;85.50
70244;DHT22;57634;51.136;17.024;2022-12-01T01:42:39;1.60;85.60
70244;DHT22;57634;51.136;17.024;2022-12-01T01:45:40;1.60;85.70
70244;DHT22;57634;51.136;17.024;2022-12-01T01:48:46;1.60;85.60
70244;DHT22;57634;51.136;17.024;2022-12-01T01:51:50;1.60;85.50
70244;DHT22;57634;51.136;17.024;2022-12-01T01:54:54;1.70;85.40
70244;DHT22;57634;51.136;17.024;2022-12-01T01:57:56;1.60;85.40
70244;DHT22;57634;51.136;17.024;2022-12-01T02:00:58;1.70;85.30
70244;DHT22;57634;51.136;17.024;2022-12-01T02:04:00;1.70;85.20
70244;DHT22;57634;51.136;17.024;2022-12-01T02:07:02;1.70;85.20
70244;DHT22;57634;51.136;17.024;2022-12-01T02:10:05;1.80;85.10
70244;DHT22;57634;51.136;17.024;2022-12-01T02:16:55;1.80;84.80
70244;DHT22;57634;51.136;17.024;2022-12-01T02:27:07;1.80;84.50
70244;DHT22;57634;51.136;17.024;2022-12-01T02:30:15;1.80;84.50
70244;DHT22;57634;51.136;17.024;2022-12-01T02:36:34;1.70;84.60
70244;DHT22;57634;51.136;17.024;2022-12-01T02:39:43;1.70;84.90
70244;DHT22;57634;51.136;17.024;2022-12-01T02:43:22;1.80;85.00
70244;DHT22;57634;51.136;17.024;2022-12-01T02:46:35;1.80;85.10
70244;DHT22;57634;51.136;17.024;2022-12-01T02:49:47;1.90;85.00
70244;DHT22;57634;51.136;17.024;2022-12-01T02:52:49;1.80;84.60
70244;DHT22;57634;51.136;17.024;2022-12-01T02:55:53;1.80;84.60
70244;DHT22;57634;51.136;17.024;2022-12-01T02:58:55;1.80;84.60
70244;DHT22;57634;51.136;17.024;2022-12-01T03:02:34;1.80;84.60
70244;DHT22;57634;51.136;17.024;2022-12-01T03:05:51;1.80;84.80
70244;DHT22;57634;51.136;17.024;2022-12-01T03:22:22;1.80;84.80
70244;DHT22;57634;51.136;17.024;2022-12-01T03:25:27;1.90;84.80
70244;DHT22;57634;51.136;17.024;2022-12-01T03:28:33;1.90;84.60
70244;DHT22;57634;51.136;17.024;2022-12-01T03:31:43;1.90;84.70
70244;DHT22;57634;51.136;17.024;2022-12-01T03:35:19;1.90;84.70
70244;DHT22;57634;51.136;17.024;2022-12-01T03:38:25;1.90;84.80
70244;DHT22;57634;51.136;17.024;2022-12-01T03:41:36;1.90;84.80
70244;DHT22;57634;51.136;17.024;2022-12-01T03:45:04;2.00;84.90
70244;DHT22;57634;51.136;17.024;2022-12-01T03:47:56;2.00;84.70
70244;DHT22;57634;51.136;17.024;2022-12-01T04:01:04;2.20;84.40
70244;DHT22;57634;51.136;17.024;2022-12-01T04:04:10;2.20;84.30
70244;DHT22;57634;51.136;17.024;2022-12-01T04:07:12;2.20;84.30
70244;DHT22;57634;51.136;17.024;2022-12-01T04:10:15;2.20;84.40
70244;DHT22;57634;51.136;17.024;2022-12-01T04:13:16;2.30;84.30
70244;DHT22;57634;51.136;17.024;2022-12-01T04:16:51;2.30;84.20
70244;DHT22;57634;51.136;17.024;2022-12-01T04:19:53;2.30;84.10
70244;DHT22;57634;51.136;17.024;2022-12-01T04:22:55;2.30;84.20
70244;DHT22;57634;51.136;17.024;2022-12-01T04:26:00;2.30;84.20
70244;DHT22;57634;51.136;17.024;2022-12-01T04:29:05;2.40;84.10
70244;DHT22;57634;51.136;17.024;2022-12-01T04:32:06;2.40;84.10
70244;DHT22;57634;51.136;17.024;2022-12-01T04:35:10;2.40;84.00
70244;DHT22;57634;51.136;17.024;2022-12-01T04:38:11;2.40;83.90
70244;DHT22;57634;51.136;17.024;2022-12-01T04:41:13;2.40;84.00
70244;DHT22;57634;51.136;17.024;2022-12-01T04:44:15;2.40;83.90
70244;DHT22;57634;51.136;17.024;2022-12-01T04:47:16;2.50;83.90
70244;DHT22;57634;51.136;17.024;2022-12-01T04:50:17;2.50;83.80
70244;DHT22;57634;51.136;17.024;2022-12-01T04:53:48;2.40;83.80
70244;DHT22;57634;51.136;17.024;2022-12-01T04:56:49;2.50;83.80
70244;DHT22;57634;51.136;17.024;2022-12-01T04:59:51;2.50;83.70
70244;DHT22;57634;51.136;17.024;2022-12-01T05:02:52;2.50;83.60
70244;DHT22;57634;51.136;17.024;2022-12-01T05:06:00;2.50;83.80
70244;DHT22;57634;51.136;17.024;2022-12-01T05:09:01;2.50;83.80
70244;DHT22;57634;51.136;17.024;2022-12-01T05:12:03;2.50;83.70
70244;DHT22;57634;51.136;17.024;2022-12-01T05:15:05;2.50;83.70
70244;DHT22;57634;51.136;17.024;2022-12-01T05:18:07;2.60;83.70
70244;DHT22;57634;51.136;17.024;2022-12-01T05:21:09;2.60;83.80
70244;DHT22;57634;51.136;17.024;2022-12-01T05:24:12;2.50;83.60
70244;DHT22;57634;51.136;17.024;2022-12-01T05:27:14;2.60;83.80
70244;DHT22;57634;51.136;17.024;2022-12-01T05:30:42;2.60;83.70
70244;DHT22;57634;51.136;17.024;2022-12-01T05:33:44;2.60;83.60
70244;DHT22;57634;51.136;17.024;2022-12-01T05:36:46;2.60;83.60
70244;DHT22;57634;51.136;17.024;2022-12-01T05:39:47;2.60;83.70
70244;DHT22;57634;51.136;17.024;2022-12-01T05:42:49;2.50;83.70
70244;DHT22;57634;51.136;17.024;2022-12-01T05:45:50;2.60;83.80
70244;DHT22;57634;51.136;17.024;2022-12-01T05:48:51;2.60;83.80
70244;DHT22;57634;51.136;17.024;2022-12-01T05:51:52;2.60;83.70
70244;DHT22;57634;51.136;17.024;2022-12-01T05:54:53;2.60;83.70
70244;DHT22;57634;51.136;17.024;2022-12-01T05:57:55;2.60;83.90
70244;DHT22;57634;51.136;17.024;2022-12-01T06:00:56;2.60;83.90
70244;DHT22;57634;51.136;17.024;2022-12-01T06:03:57;2.60;83.90
70244;DHT22;57634;51.136;17.024;2022-12-01T06:06:58;2.70;83.90
70244;DHT22;57634;51.136;17.024;2022-12-01T06:10:01;2.70;83.90
70244;DHT22;57634;51.136;17.024;2022-12-01T06:13:02;2.70;83.80
70244;DHT22;57634;51.136;17.024;2022-12-01T06:16:30;2.80;83.80
70244;DHT22;57634;51.136;17.024;2022-12-01T06:19:31;2.80;83.70
70244;DHT22;57634;51.136;17.024;2022-12-01T06:22:33;2.80;83.60
70244;DHT22;57634;51.136;17.024;2022-12-01T06:25:34;2.80;83.40
70244;DHT22;57634;51.136;17.024;2022-12-01T06:28:36;2.70;83.40
70244;DHT22;57634;51.136;17.024;2022-12-01T06:31:37;2.70;83.40
70244;DHT22;57634;51.136;17.024;2022-12-01T06:34:38;2.70;83.60
70244;DHT22;57634;51.136;17.024;2022-12-01T06:37:39;2.70;83.80
70244;DHT22;57634;51.136;17.024;2022-12-01T06:40:42;2.70;83.90
70244;DHT22;57634;51.136;17.024;2022-12-01T06:43:44;2.70;83.90
70244;DHT22;57634;51.136;17.024;2022-12-01T06:46:45;2.70;84.00
70244;DHT22;57634;51.136;17.024;2022-12-01T06:49:46;2.80;84.00
70244;DHT22;57634;51.136;17.024;2022-12-01T06:52:47;2.80;84.00
70244;DHT22;57634;51.136;17.024;2022-12-01T06:55:50;2.80;84.00
70244;DHT22;57634;51.136;17.024;2022-12-01T06:58:52;2.80;83.90
70244;DHT22;57634;51.136;17.024;2022-12-01T07:02:19;2.80;83.90
70244;DHT22;57634;51.136;17.024;2022-12-01T07:05:20;2.80;83.90
70244;DHT22;57634;51.136;17.024;2022-12-01T07:08:21;2.80;83.90
70244;DHT22;57634;51.136;17.024;2022-12-01T07:11:23;2.80;83.90
70244;DHT22;57634;51.136;17.024;2022-12-01T07:14:25;2.80;83.90
70244;DHT22;57634;51.136;17.024;2022-12-01T07:17:27;2.80;83.90
70244;DHT22;57634;51.136;17.024;2022-12-01T07:20:29;2.80;84.10
70244;DHT22;57634;51.136;17.024;2022-12-01T07:23:31;2.90;84.20
70244;DHT22;57634;51.136;17.024;2022-12-01T07:26:32;2.90;84.10
70244;DHT22;57634;51.136;17.024;2022-12-01T07:29:34;2.90;84.00
70244;DHT22;57634;51.136;17.024;2022-12-01T07:32:35;2.90;83.90
70244;DHT22;57634;51.136;17.024;2022-12-01T07:35:37;3.00;84.00
70244;DHT22;57634;51.136;17.024;2022-12-01T07:38:39;2.90;83.90
70244;DHT22;57634;51.136;17.024;2022-12-01T07:41:41;2.90;83.80
70244;DHT22;57634;51.136;17.024;2022-12-01T07:45:09;2.90;84.00
70244;DHT22;57634;51.136;17.024;2022-12-01T07:48:10;3.00;84.00
70244;DHT22;57634;51.136;17.024;2022-12-01T07:51:13;3.00;84.10
70244;DHT22;57634;51.136;17.024;2022-12-01T07:54:18;3.00;84.10
70244;DHT22;57634;51.136;17.024;2022-12-01T07:57:21;3.10;84.00
70244;DHT22;57634;51.136;17.024;2022-12-01T08:00:24;3.10;83.90
70244;DHT22;57634;51.136;17.024;2022-12-01T08:03:25;3.20;83.80
70244;DHT22;57634;51.136;17.024;2022-12-01T08:06:26;3.20;83.80
70244;DHT22;57634;51.136;17.024;2022-12-01T08:09:28;3.20;83.80
70244;DHT22;57634;51.136;17.024;2022-12-01T08:12:29;3.20;83.70
70244;DHT22;57634;51.136;17.024;2022-12-01T08:15:31;3.30;83.70
70244;DHT22;57634;51.136;17.024;2022-12-01T08:18:37;3.30;83.40
70244;DHT22;57634;51.136;17.024;2022-12-01T08:22:05;3.40;83.50
70244;DHT22;57634;51.136;17.024;2022-12-01T08:25:07;3.50;83.60
70244;DHT22;57634;51.136;17.024;2022-12-01T08:28:08;3.50;83.30
70244;DHT22;57634;51.136;17.024;2022-12-01T08:31:12;3.60;83.00
70244;DHT22;57634;51.136;17.024;2022-12-01T08:34:15;3.60;82.90
70244;DHT22;57634;51.136;17.024;2022-12-01T08:37:16;3.60;83.00
70244;DHT22;57634;51.136;17.024;2022-12-01T08:40:18;3.70;82.90
70244;DHT22;57634;51.136;17.024;2022-12-01T08:43:20;3.70;82.70
70244;DHT22;57634;51.136;17.024;2022-12-01T08:46:21;3.80;82.80
70244;DHT22;57634;51.136;17.024;2022-12-01T08:49:23;3.80;82.50
70244;DHT22;57634;51.136;17.024;2022-12-01T08:52:24;3.90;82.20
70244;DHT22;57634;51.136;17.024;2022-12-01T08:55:26;3.90;82.20
70244;DHT22;57634;51.136;17.024;2022-12-01T08:58:27;3.90;82.20
70244;DHT22;57634;51.136;17.024;2022-12-01T09:01:29;3.90;82.10
70244;DHT22;57634;51.136;17.024;2022-12-01T09:04:57;3.90;82.00
70244;DHT22;57634;51.136;17.024;2022-12-01T09:07:58;3.90;82.10
70244;DHT22;57634;51.136;17.024;2022-12-01T09:11:14;3.90;81.80
70244;DHT22;57634;51.136;17.024;2022-12-01T09:14:17;3.90;81.90
70244;DHT22;57634;51.136;17.024;2022-12-01T09:17:18;3.90;81.80
70244;DHT22;57634;51.136;17.024;2022-12-01T09:20:20;3.90;81.90
70244;DHT22;57634;51.136;17.024;2022-12-01T09:23:22;3.90;81.90
70244;DHT22;57634;51.136;17.024;2022-12-01T09:26:24;3.90;81.70
70244;DHT22;57634;51.136;17.024;2022-12-01T09:29:25;3.90;81.60
70244;DHT22;57634;51.136;17.024;2022-12-01T09:32:26;3.90;81.70
70244;DHT22;57634;51.136;17.024;2022-12-01T09:35:30;3.90;81.70
70244;DHT22;57634;51.136;17.024;2022-12-01T09:38:58;3.90;81.80
70244;DHT22;57634;51.136;17.024;2022-12-01T09:42:10;3.90;81.80
70244;DHT22;57634;51.136;17.024;2022-12-01T09:45:24;3.90;81.90
70244;DHT22;57634;51.136;17.024;2022-12-01T09:48:30;3.90;81.80
70244;DHT22;57634;51.136;17.024;2022-12-01T09:51:32;4.00;81.80
70244;DHT22;57634;51.136;17.024;2022-12-01T09:54:36;4.00;81.80
70244;DHT22;57634;51.136;17.024;2022-12-01T09:57:38;4.10;81.70
70244;DHT22;57634;51.136;17.024;2022-12-01T10:01:16;4.00;81.30
70244;DHT22;57634;51.136;17.024;2022-12-01T10:04:32;3.90;81.20
70244;DHT22;57634;51.136;17.024;2022-12-01T10:07:36;3.90;81.30
70244;DHT22;57634;51.136;17.024;2022-12-01T10:10:45;3.90;81.30
70244;DHT22;57634;51.136;17.024;2022-12-01T10:13:47;3.90;81.50
70244;DHT22;57634;51.136;17.024;2022-12-01T10:17:00;3.80;81.60
70244;DHT22;57634;51.136;17.024;2022-12-01T10:30:13;3.90;81.30
70244;DHT22;57634;51.136;17.024;2022-12-01T10:33:24;3.90;81.30
70244;DHT22;57634;51.136;17.024;2022-12-01T10:36:51;3.90;81.70
70244;DHT22;57634;51.136;17.024;2022-12-01T10:39:55;3.90;81.80
70244;DHT22;57634;51.136;17.024;2022-12-01T10:42:58;3.90;81.80
70244;DHT22;57634;51.136;17.024;2022-12-01T10:46:51;4.00;81.70
70244;DHT22;57634;51.136;17.024;2022-12-01T10:49:13;4.00;81.60
70244;DHT22;57634;51.136;17.024;2022-12-01T11:02:23;4.00;81.20
70244;DHT22;57634;51.136;17.024;2022-12-01T11:05:28;3.90;81.30
70244;DHT22;57634;51.136;17.024;2022-12-01T11:08:39;3.90;81.40
70244;DHT22;57634;51.136;17.024;2022-12-01T11:11:42;3.90;81.50
70244;DHT22;57634;51.136;17.024;2022-12-01T11:14:49;4.00;81.50
70244;DHT22;57634;51.136;17.024;2022-12-01T11:21:33;3.90;81.30
70244;DHT22;57634;51.136;17.024;2022-12-01T11:24:45;4.00;81.40
70244;DHT22;57634;51.136;17.024;2022-12-01T11:27:51;4.00;81.10
70244;DHT22;57634;51.136;17.024;2022-12-01T11:31:04;4.00;80.90
70244;DHT22;57634;51.136;17.024;2022-12-01T11:36:07;4.00;81.10
70244;DHT22;57634;51.136;17.024;2022-12-01T11:42:27;4.00;80.80
70244;DHT22;57634;51.136;17.024;2022-12-01T11:45:31;4.10;80.80
70244;DHT22;57634;51.136;17.024;2022-12-01T11:48:34;4.10;80.90
70244;DHT22;57634;51.136;17.024;2022-12-01T11:51:36;4.10;80.60
70244;DHT22;57634;51.136;17.024;2022-12-01T11:58:18;4.10;80.60
70244;DHT22;57634;51.136;17.024;2022-12-01T12:04:43;4.10;80.70
70244;DHT22;57634;51.136;17.024;2022-12-01T12:14:46;4.00;80.60
70244;DHT22;57634;51.136;17.024;2022-12-01T12:21:19;4.00;80.50
70244;DHT22;57634;51.136;17.024;2022-12-01T12:34:39;4.00;80.80
70244;DHT22;57634;51.136;17.024;2022-12-01T12:48:02;4.00;80.60
70244;DHT22;57634;51.136;17.024;2022-12-01T12:51:52;4.10;80.70
70244;DHT22;57634;51.136;17.024;2022-12-01T12:54:48;4.10;80.50
70244;DHT22;57634;51.136;17.024;2022-12-01T12:58:00;4.10;80.40
70244;DHT22;57634;51.136;17.024;2022-12-01T13:01:20;4.10;80.20
70244;DHT22;57634;51.136;17.024;2022-12-01T13:04:22;4.00;80.10
70244;DHT22;57634;51.136;17.024;2022-12-01T13:07:33;3.90;80.10
70244;DHT22;57634;51.136;17.024;2022-12-01T13:14:25;4.00;80.00
70244;DHT22;57634;51.136;17.024;2022-12-01T13:17:36;3.90;80.00
70244;DHT22;57634;51.136;17.024;2022-12-01T13:20:39;4.00;80.20
70244;DHT22;57634;51.136;17.024;2022-12-01T13:23:42;4.00;80.30
70244;DHT22;57634;51.136;17.024;2022-12-01T13:26:47;4.00;80.10
70244;DHT22;57634;51.136;17.024;2022-12-01T13:30:21;4.00;80.20
70244;DHT22;57634;51.136;17.024;2022-12-01T13:33:24;4.10;80.30
70244;DHT22;57634;51.136;17.024;2022-12-01T13:36:27;4.10;80.20
70244;DHT22;57634;51.136;17.024;2022-12-01T13:39:33;4.10;80.20
70244;DHT22;57634;51.136;17.024;2022-12-01T13:42:36;4.10;80.20
70244;DHT22;57634;51.136;17.024;2022-12-01T13:45:39;4.10;80.20
70244;DHT22;57634;51.136;17.024;2022-12-01T13:48:51;4.10;80.20
70244;DHT22;57634;51.136;17.024;2022-12-01T13:55:32;4.10;80.10
70244;DHT22;57634;51.136;17.024;2022-12-01T13:58:40;4.00;80.20
70244;DHT22;57634;51.136;17.024;2022-12-01T14:01:44;4.00;80.30
70244;DHT22;57634;51.136;17.024;2022-12-01T14:04:46;4.00;80.30
70244;DHT22;57634;51.136;17.024;2022-12-01T14:07:49;4.00;80.30
70244;DHT22;57634;51.136;17.024;2022-12-01T14:10:56;4.00;80.20
70244;DHT22;57634;51.136;17.024;2022-12-01T14:14:09;3.90;80.00
70244;DHT22;57634;51.136;17.024;2022-12-01T14:20:49;3.90;80.30
70244;DHT22;57634;51.136;17.024;2022-12-01T14:24:00;3.80;80.50
70244;DHT22;57634;51.136;17.024;2022-12-01T14:27:03;3.80;80.40
70244;DHT22;57634;51.136;17.024;2022-12-01T14:40:21;3.80;80.10
70244;DHT22;57634;51.136;17.024;2022-12-01T14:43:25;3.80;80.20
70244;DHT22;57634;51.136;17.024;2022-12-01T14:46:44;3.80;80.40
70244;DHT22;57634;51.136;17.024;2022-12-01T14:49:54;3.90;80.40
70244;DHT22;57634;51.136;17.024;2022-12-01T14:53:02;3.90;80.30
70244;DHT22;57634;51.136;17.024;2022-12-01T14:56:32;4.00;80.30
70244;DHT22;57634;51.136;17.024;2022-12-01T14:59:34;4.00;80.10
70244;DHT22;57634;51.136;17.024;2022-12-01T15:02:40;3.90;80.20
70244;DHT22;57634;51.136;17.024;2022-12-01T15:05:42;4.00;80.20
70244;DHT22;57634;51.136;17.024;2022-12-01T15:08:44;3.90;80.10
70244;DHT22;57634;51.136;17.024;2022-12-01T15:11:54;3.90;80.10
70244;DHT22;57634;51.136;17.024;2022-12-01T15:14:55;3.90;80.00
70244;DHT22;57634;51.136;17.024;2022-12-01T15:17:57;3.90;80.00
70244;DHT22;57634;51.136;17.024;2022-12-01T15:21:09;3.90;80.00
70244;DHT22;57634;51.136;17.024;2022-12-01T15:24:37;3.90;80.00
70244;DHT22;57634;51.136;17.024;2022-12-01T15:27:39;3.90;80.20
70244;DHT22;57634;51.136;17.024;2022-12-01T15:30:51;3.90;80.20
70244;DHT22;57634;51.136;17.024;2022-12-01T15:33:55;3.90;80.20
70244;DHT22;57634;51.136;17.024;2022-12-01T15:36:57;3.90;80.30
70244;DHT22;57634;51.136;17.024;2022-12-01T15:40:04;3.90;80.30
70244;DHT22;57634;51.136;17.024;2022-12-01T15:43:19;3.90;80.30
70244;DHT22;57634;51.136;17.024;2022-12-01T15:46:47;3.80;80.40
70244;DHT22;57634;51.136;17.024;2022-12-01T15:49:49;3.80;80.50
70244;DHT22;57634;51.136;17.024;2022-12-01T15:52:50;3.80;80.60
70244;DHT22;57634;51.136;17.024;2022-12-01T15:55:54;3.80;80.60
70244;DHT22;57634;51.136;17.024;2022-12-01T15:59:06;3.90;80.60
70244;DHT22;57634;51.136;17.024;2022-12-01T16:02:25;3.90;80.50
70244;DHT22;57634;51.136;17.024;2022-12-01T16:05:31;3.90;80.50
70244;DHT22;57634;51.136;17.024;2022-12-01T16:09:05;3.90;80.40
70244;DHT22;57634;51.136;17.024;2022-12-01T16:15:23;3.90;80.40
70244;DHT22;57634;51.136;17.024;2022-12-01T16:18:32;3.90;80.40
70244;DHT22;57634;51.136;17.024;2022-12-01T16:25:20;3.90;80.40
70244;DHT22;57634;51.136;17.024;2022-12-01T16:28:30;3.90;80.40
70244;DHT22;57634;51.136;17.024;2022-12-01T16:31:34;3.90;80.40
70244;DHT22;57634;51.136;17.024;2022-12-01T16:34:36;3.90;80.40
70244;DHT22;57634;51.136;17.024;2022-12-01T16:37:38;3.80;80.40
70244;DHT22;57634;51.136;17.024;2022-12-01T16:40:41;3.90;80.50
70244;DHT22;57634;51.136;17.024;2022-12-01T16:43:45;3.90;80.60
70244;DHT22;57634;51.136;17.024;2022-12-01T16:46:49;3.90;80.60
70244;DHT22;57634;51.136;17.024;2022-12-01T16:49:51;3.90;80.40
70244;DHT22;57634;51.136;17.024;2022-12-01T16:53:19;3.80;80.40
70244;DHT22;57634;51.136;17.024;2022-12-01T16:56:20;3.90;80.60
70244;DHT22;57634;51.136;17.024;2022-12-01T16:59:22;3.90;80.60
70244;DHT22;57634;51.136;17.024;2022-12-01T17:02:23;3.90;80.60
70244;DHT22;57634;51.136;17.024;2022-12-01T17:05:24;3.80;80.50
70244;DHT22;57634;51.136;17.024;2022-12-01T17:08:26;3.80;80.60
70244;DHT22;57634;51.136;17.024;2022-12-01T17:11:27;3.80;80.60
70244;DHT22;57634;51.136;17.024;2022-12-01T17:14:28;3.80;80.50
70244;DHT22;57634;51.136;17.024;2022-12-01T17:17:30;3.80;80.60
70244;DHT22;57634;51.136;17.024;2022-12-01T17:20:31;3.80;80.60
70244;DHT22;57634;51.136;17.024;2022-12-01T17:23:36;3.80;80.50
70244;DHT22;57634;51.136;17.024;2022-12-01T17:26:38;3.80;80.60
70244;DHT22;57634;51.136;17.024;2022-12-01T17:29:39;3.80;80.60
70244;DHT22;57634;51.136;17.024;2022-12-01T17:32:41;3.80;80.50
70244;DHT22;57634;51.136;17.024;2022-12-01T17:36:13;3.80;80.40
70244;DHT22;57634;51.136;17.024;2022-12-01T17:39:14;3.70;80.30
70244;DHT22;57634;51.136;17.024;2022-12-01T17:42:16;3.80;80.20
70244;DHT22;57634;51.136;17.024;2022-12-01T17:45:18;3.80;80.20
70244;DHT22;57634;51.136;17.024;2022-12-01T17:48:19;3.80;79.90
70244;DHT22;57634;51.136;17.024;2022-12-01T17:51:21;3.80;79.70
70244;DHT22;57634;51.136;17.024;2022-12-01T17:54:22;3.80;79.30
70244;DHT22;57634;51.136;17.024;2022-12-01T17:57:24;3.80;79.00
70244;DHT22;57634;51.136;17.024;2022-12-01T18:00:25;3.80;78.60
70244;DHT22;57634;51.136;17.024;2022-12-01T18:03:26;3.80;78.50
70244;DHT22;57634;51.136;17.024;2022-12-01T18:06:27;3.80;78.50
70244;DHT22;57634;51.136;17.024;2022-12-01T18:09:28;3.80;78.40
70244;DHT22;57634;51.136;17.024;2022-12-01T18:12:30;3.80;78.40
70244;DHT22;57634;51.136;17.024;2022-12-01T18:15:31;3.80;78.40
70244;DHT22;57634;51.136;17.024;2022-12-01T18:18:59;3.80;78.40
70244;DHT22;57634;51.136;17.024;2022-12-01T18:22:00;3.80;78.50
70244;DHT22;57634;51.136;17.024;2022-12-01T18:25:02;3.80;78.60
70244;DHT22;57634;51.136;17.024;2022-12-01T18:28:04;3.80;78.40
70244;DHT22;57634;51.136;17.024;2022-12-01T18:31:09;3.70;78.20
70244;DHT22;57634;51.136;17.024;2022-12-01T18:34:10;3.70;78.10
70244;DHT22;57634;51.136;17.024;2022-12-01T18:37:12;3.70;78.10
70244;DHT22;57634;51.136;17.024;2022-12-01T18:40:14;3.70;78.00
70244;DHT22;57634;51.136;17.024;2022-12-01T18:43:16;3.80;78.10
70244;DHT22;57634;51.136;17.024;2022-12-01T18:46:18;3.80;78.00
70244;DHT22;57634;51.136;17.024;2022-12-01T18:49:19;3.80;78.00
70244;DHT22;57634;51.136;17.024;2022-12-01T18:52:20;3.80;78.00
70244;DHT22;57634;51.136;17.024;2022-12-01T18:55:22;3.80;78.10
70244;DHT22;57634;51.136;17.024;2022-12-01T18:58:57;3.90;78.10
70244;DHT22;57634;51.136;17.024;2022-12-01T19:01:59;3.80;78.10
70244;DHT22;57634;51.136;17.024;2022-12-01T19:05:00;3.80;78.20
70244;DHT22;57634;51.136;17.024;2022-12-01T19:08:01;3.80;78.40
70244;DHT22;57634;51.136;17.024;2022-12-01T19:11:03;3.80;78.40
70244;DHT22;57634;51.136;17.024;2022-12-01T19:14:06;3.80;78.40
70244;DHT22;57634;51.136;17.024;2022-12-01T19:17:07;3.70;78.40
70244;DHT22;57634;51.136;17.024;2022-12-01T19:20:10;3.70;78.10
70244;DHT22;57634;51.136;17.024;2022-12-01T19:23:12;3.70;78.10
70244;DHT22;57634;51.136;17.024;2022-12-01T19:26:15;3.70;78.10
70244;DHT22;57634;51.136;17.024;2022-12-01T19:29:17;3.70;77.90
70244;DHT22;57634;51.136;17.024;2022-12-01T19:32:19;3.70;77.80
70244;DHT22;57634;51.136;17.024;2022-12-01T19:35:47;3.70;77.90
70244;DHT22;57634;51.136;17.024;2022-12-01T19:38:49;3.70;78.10
70244;DHT22;57634;51.136;17.024;2022-12-01T19:41:51;3.70;78.10
70244;DHT22;57634;51.136;17.024;2022-12-01T19:44:53;3.70;78.20
70244;DHT22;57634;51.136;17.024;2022-12-01T19:47:55;3.70;78.20
70244;DHT22;57634;51.136;17.024;2022-12-01T19:50:57;3.60;78.20
70244;DHT22;57634;51.136;17.024;2022-12-01T19:53:58;3.60;78.10
70244;DHT22;57634;51.136;17.024;2022-12-01T19:56:59;3.60;78.30
70244;DHT22;57634;51.136;17.024;2022-12-01T20:00:01;3.70;78.30
70244;DHT22;57634;51.136;17.024;2022-12-01T20:03:02;3.70;78.10
70244;DHT22;57634;51.136;17.024;2022-12-01T20:06:07;3.70;77.90
70244;DHT22;57634;51.136;17.024;2022-12-01T20:09:09;3.60;77.80
70244;DHT22;57634;51.136;17.024;2022-12-01T20:12:10;3.60;77.80
70244;DHT22;57634;51.136;17.024;2022-12-01T20:15:40;3.50;77.70
70244;DHT22;57634;51.136;17.024;2022-12-01T20:18:41;3.50;77.90
70244;DHT22;57634;51.136;17.024;2022-12-01T20:21:42;3.50;77.90
70244;DHT22;57634;51.136;17.024;2022-12-01T20:24:44;3.50;77.90
70244;DHT22;57634;51.136;17.024;2022-12-01T20:27:45;3.50;78.00
70244;DHT22;57634;51.136;17.024;2022-12-01T20:30:47;3.50;78.00
70244;DHT22;57634;51.136;17.024;2022-12-01T20:33:50;3.50;78.10
70244;DHT22;57634;51.136;17.024;2022-12-01T20:36:52;3.50;78.00
70244;DHT22;57634;51.136;17.024;2022-12-01T20:39:53;3.50;78.00
70244;DHT22;57634;51.136;17.024;2022-12-01T20:42:55;3.40;78.10
70244;DHT22;57634;51.136;17.024;2022-12-01T20:45:57;3.40;78.30
70244;DHT22;57634;51.136;17.024;2022-12-01T20:48:59;3.40;78.50
70244;DHT22;57634;51.136;17.024;2022-12-01T20:52:00;3.40;78.60
70244;DHT22;57634;51.136;17.024;2022-12-01T20:55:01;3.50;78.60
70244;DHT22;57634;51.136;17.024;2022-12-01T20:58:31;3.50;78.40
70244;DHT22;57634;51.136;17.024;2022-12-01T21:01:32;3.40;78.40
70244;DHT22;57634;51.136;17.024;2022-12-01T21:04:33;3.40;78.60
70244;DHT22;57634;51.136;17.024;2022-12-01T21:07:34;3.40;78.80
70244;DHT22;57634;51.136;17.024;2022-12-01T21:10:41;3.40;78.80
70244;DHT22;57634;51.136;17.024;2022-12-01T21:13:45;3.40;78.80
70244;DHT22;57634;51.136;17.024;2022-12-01T21:16:47;3.50;78.80
70244;DHT22;57634;51.136;17.024;2022-12-01T21:19:54;3.40;78.80
70244;DHT22;57634;51.136;17.024;2022-12-01T21:23:01;3.40;78.90
70244;DHT22;57634;51.136;17.024;2022-12-01T21:26:40;3.30;79.00
70244;DHT22;57634;51.136;17.024;2022-12-01T21:29:49;3.30;79.10
70244;DHT22;57634;51.136;17.024;2022-12-01T21:32:51;3.30;79.20
70244;DHT22;57634;51.136;17.024;2022-12-01T21:35:54;3.30;79.20
70244;DHT22;57634;51.136;17.024;2022-12-01T21:39:01;3.30;79.30
70244;DHT22;57634;51.136;17.024;2022-12-01T21:45:59;3.40;79.20
70244;DHT22;57634;51.136;17.024;2022-12-01T21:48:54;3.30;79.20